Green Ray — D5EY2 — position and weather

sailwx.info

Track history (hours):
 
Tides and Currents Weather Stations Pressure Air Temp Water Temp Dewpoint Dewpoint Depression Visibility Wind Speed Wind Dir Waves Ship Positions

Green Ray

Last reported at 2017-Sep-21 19:11 UTC. Time now 2017-Sep-22 10:08 UTC.
Position N 51°16' E 004°15'.

Length 145 m; draft 8.8 m.

Type: Ship (hazmat cat C). MMSI: 636016193.

Date/timePositionNaut miles runAvg speedWind from/ knotsBaromVisibWave heightAir tempDewpointWater temp
2017-Sep-21 19:11N 51°16' E 004°15'0 0.0
2017-Sep-21 19:00N 51°16' E 004°15'0 0.0
2017-Sep-21 18:30N 51°16' E 004°15'1 2.1
2017-Sep-21 18:00N 51°17' E 004°15'0 0.4
2017-Sep-21 17:30N 51°17' E 004°15'2 3.1
2017-Sep-21 17:00N 51°18' E 004°16'4 7.4
2017-Sep-21 16:30N 51°21' E 004°14'3 6.8
2017-Sep-21 16:00N 51°22' E 004°08'5 9.6
2017-Sep-21 15:30N 51°25' E 004°02'4 7.9
2017-Sep-21 15:00N 51°23' E 003°56'612.1
2017-Sep-21 14:30N 51°21' E 003°47'612.0
2017-Sep-21 14:00N 51°26' E 003°41'611.2
2017-Sep-21 13:30N 51°25' E 003°32'714.6
2017-Sep-21 13:01N 51°24' E 003°20'714.9
2017-Sep-21 12:31N 51°24' E 003°09'713.5
2017-Sep-21 12:00N 51°23' E 002°58'713.5
2017-Sep-21 11:29N 51°22' E 002°47'911.1
2017-Sep-21 10:42N 51°22' E 002°33'2 9.1
2017-Sep-21 10:30N 51°23' E 002°30'711.6
2017-Sep-21 09:55N 51°29' E 002°35'3811.4
2017-Sep-21 06:36N 52°07' E 002°37'211.2
2017-Sep-21 06:25N 52°09' E 002°37'1110.7
2017-Sep-21 05:23N 52°20' E 002°38'7 2.8
2017-Sep-21 02:54N 52°19' E 002°49'512.2
2017-Sep-21 02:30N 52°15' E 002°45'810.4
2017-Sep-21 01:44N 52°09' E 002°54'310.2
2017-Sep-21 01:26N 52°07' E 002°57'6 9.0
2017-Sep-21 00:44N 52°04' E 003°07'11 9.7
2017-Sep-20 23:32N 52°03' E 003°25'412.3
2017-Sep-20 23:14N 52°03' E 003°31'312.5
2017-Sep-20 23:00N 52°04' E 003°36'612.5
2017-Sep-20 22:31N 52°03' E 003°46'510.8
2017-Sep-20 22:01N 52°02' E 003°54'611.1
2017-Sep-20 21:31N 51°60' E 004°02'611.5
2017-Sep-20 21:00N 51°57' E 004°11'510.4
2017-Sep-20 20:30N 51°54' E 004°18'2 4.1
2017-Sep-20 19:57N 51°53' E 004°21'  
2017-Sep-18 12:36N 51°53' E 004°18'0 0.0
2017-Sep-18 12:30N 51°53' E 004°18'0 0.1
2017-Sep-18 12:00N 51°53' E 004°18'1 2.3
2017-Sep-18 11:30N 51°54' E 004°17'5 9.1
2017-Sep-18 11:00N 51°57' E 004°11'5 9.5
2017-Sep-18 10:30N 51°59' E 004°05'611.2
2017-Sep-18 10:00N 52°00' E 003°56'510.2
2017-Sep-18 09:30N 51°59' E 003°48'1810.2
2017-Sep-18 07:43N 51°55' E 003°19'4211.4
2017-Sep-18 04:03N 51°34' E 002°20'612.5
2017-Sep-18 03:33N 51°30' E 002°14'012.7
2017-Sep-18 03:30N 51°29' E 002°13'612.6
2017-Sep-18 03:00N 51°24' E 002°08'612.9
2017-Sep-18 02:30N 51°17' E 002°08'611.9
2017-Sep-18 02:00N 51°13' E 002°01'713.4
2017-Sep-18 01:30N 51°10' E 001°52'713.7
2017-Sep-18 01:00N 51°05' E 001°43'714.2
2017-Sep-18 00:30N 51°01' E 001°35'6813.2
2017-Sep-17 19:21N 50°21' E 000°08'515.2
2017-Sep-17 19:00N 50°19' E 000°01'3415.4
2017-Sep-17 16:47N 50°09' W 000°50'515.0
2017-Sep-17 16:28N 50°08' W 000°58'714.7
2017-Sep-17 16:00N 50°06' W 001°08'714.2
2017-Sep-17 15:30N 50°04' W 001°19'713.6
2017-Sep-17 15:00N 50°03' W 001°29'612.9
2017-Sep-17 14:31N 50°02' W 001°39'612.1
2017-Sep-17 14:01N 50°01' W 001°48'611.5
2017-Sep-17 13:30N 49°59' W 001°57'510.9
2017-Sep-17 13:01N 49°57' W 002°05'510.4
2017-Sep-17 12:31N 49°56' W 002°13'2410.5
2017-Sep-17 10:11N 49°49' W 002°49'211.3
2017-Sep-17 09:59N 49°49' W 002°53'811.5
2017-Sep-17 09:15N 49°47' W 003°05'311.9
2017-Sep-17 09:00N 49°46' W 003°10'612.1
2017-Sep-17 08:30N 49°44' W 003°19'612.2
2017-Sep-17 08:00N 49°43' W 003°28'612.3
2017-Sep-17 07:30N 49°41' W 003°37'812.3
2017-Sep-17 06:54N 49°38' W 003°48'512.6
2017-Sep-17 06:30N 49°37' W 003°55'712.9
2017-Sep-17 05:58N 49°36' W 004°06'  
Track history (hours):
 
Tides and Currents Weather Stations Pressure Air Temp Water Temp Dewpoint Dewpoint Depression Visibility Wind Speed Wind Dir Waves Ship Positions

Green Ray

Last reported at 2017-Sep-21 19:11 UTC. Time now 2017-Sep-22 10:08 UTC.
Position N 51°16' E 004°15'.

Length 145 m; draft 8.8 m.

Type: Ship (hazmat cat C). MMSI: 636016193.

Date/timePositionNaut miles runAvg speedWind from/ knotsBaromVisibWave heightAir tempDewpointWater temp
2017-Sep-21 19:11N 51°16' E 004°15'0 0.0
2017-Sep-21 19:00N 51°16' E 004°15'0 0.0
2017-Sep-21 18:30N 51°16' E 004°15'1 2.1
2017-Sep-21 18:00N 51°17' E 004°15'0 0.4
2017-Sep-21 17:30N 51°17' E 004°15'2 3.1
2017-Sep-21 17:00N 51°18' E 004°16'4 7.4
2017-Sep-21 16:30N 51°21' E 004°14'3 6.8
2017-Sep-21 16:00N 51°22' E 004°08'5 9.6
2017-Sep-21 15:30N 51°25' E 004°02'4 7.9
2017-Sep-21 15:00N 51°23' E 003°56'612.1
2017-Sep-21 14:30N 51°21' E 003°47'612.0
2017-Sep-21 14:00N 51°26' E 003°41'611.2
2017-Sep-21 13:30N 51°25' E 003°32'714.6
2017-Sep-21 13:01N 51°24' E 003°20'714.9
2017-Sep-21 12:31N 51°24' E 003°09'713.5
2017-Sep-21 12:00N 51°23' E 002°58'713.5
2017-Sep-21 11:29N 51°22' E 002°47'911.1
2017-Sep-21 10:42N 51°22' E 002°33'2 9.1
2017-Sep-21 10:30N 51°23' E 002°30'711.6
2017-Sep-21 09:55N 51°29' E 002°35'3811.4
2017-Sep-21 06:36N 52°07' E 002°37'211.2
2017-Sep-21 06:25N 52°09' E 002°37'1110.7
2017-Sep-21 05:23N 52°20' E 002°38'7 2.8
2017-Sep-21 02:54N 52°19' E 002°49'512.2
2017-Sep-21 02:30N 52°15' E 002°45'810.4
2017-Sep-21 01:44N 52°09' E 002°54'310.2
2017-Sep-21 01:26N 52°07' E 002°57'6 9.0
2017-Sep-21 00:44N 52°04' E 003°07'11 9.7
2017-Sep-20 23:32N 52°03' E 003°25'412.3
2017-Sep-20 23:14N 52°03' E 003°31'312.5
2017-Sep-20 23:00N 52°04' E 003°36'612.5
2017-Sep-20 22:31N 52°03' E 003°46'510.8
2017-Sep-20 22:01N 52°02' E 003°54'611.1
2017-Sep-20 21:31N 51°60' E 004°02'611.5
2017-Sep-20 21:00N 51°57' E 004°11'510.4
2017-Sep-20 20:30N 51°54' E 004°18'2 4.1
2017-Sep-20 19:57N 51°53' E 004°21'  
2017-Sep-18 12:36N 51°53' E 004°18'0 0.0
2017-Sep-18 12:30N 51°53' E 004°18'0 0.1
2017-Sep-18 12:00N 51°53' E 004°18'1 2.3
2017-Sep-18 11:30N 51°54' E 004°17'5 9.1
2017-Sep-18 11:00N 51°57' E 004°11'5 9.5
2017-Sep-18 10:30N 51°59' E 004°05'611.2
2017-Sep-18 10:00N 52°00' E 003°56'510.2
2017-Sep-18 09:30N 51°59' E 003°48'1810.2
2017-Sep-18 07:43N 51°55' E 003°19'4211.4
2017-Sep-18 04:03N 51°34' E 002°20'612.5
2017-Sep-18 03:33N 51°30' E 002°14'012.7
2017-Sep-18 03:30N 51°29' E 002°13'612.6
2017-Sep-18 03:00N 51°24' E 002°08'612.9
2017-Sep-18 02:30N 51°17' E 002°08'611.9
2017-Sep-18 02:00N 51°13' E 002°01'713.4
2017-Sep-18 01:30N 51°10' E 001°52'713.7
2017-Sep-18 01:00N 51°05' E 001°43'714.2
2017-Sep-18 00:30N 51°01' E 001°35'6813.2
2017-Sep-17 19:21N 50°21' E 000°08'515.2
2017-Sep-17 19:00N 50°19' E 000°01'3415.4
2017-Sep-17 16:47N 50°09' W 000°50'515.0
2017-Sep-17 16:28N 50°08' W 000°58'714.7
2017-Sep-17 16:00N 50°06' W 001°08'714.2
2017-Sep-17 15:30N 50°04' W 001°19'713.6
2017-Sep-17 15:00N 50°03' W 001°29'612.9
2017-Sep-17 14:31N 50°02' W 001°39'612.1
2017-Sep-17 14:01N 50°01' W 001°48'611.5
2017-Sep-17 13:30N 49°59' W 001°57'510.9
2017-Sep-17 13:01N 49°57' W 002°05'510.4
2017-Sep-17 12:31N 49°56' W 002°13'2410.5
2017-Sep-17 10:11N 49°49' W 002°49'211.3
2017-Sep-17 09:59N 49°49' W 002°53'811.5
2017-Sep-17 09:15N 49°47' W 003°05'311.9
2017-Sep-17 09:00N 49°46' W 003°10'612.1
2017-Sep-17 08:30N 49°44' W 003°19'612.2
2017-Sep-17 08:00N 49°43' W 003°28'612.3
2017-Sep-17 07:30N 49°41' W 003°37'812.3
2017-Sep-17 06:54N 49°38' W 003°48'512.6
2017-Sep-17 06:30N 49°37' W 003°55'712.9
2017-Sep-17 05:58N 49°36' W 004°06'  

Dump ship's entire track history